x

Buoy B01 - Western Maine Shelf (44030) Wave Buoy

3:04am - Tue 21st Feb 2017 All times are EST. -5 hours from GMT.

  • Sig Wave height 2.3ft
  • Peak Period 5s
  • Wind
    16mph, 20mph gusts
  • Sea Temp 40°f
  • 空気 Temp 36°f
  • Sea Pressure 1027.7mb
  • Buoy B01 - Western Maine Shelf
  • Buoy B01 - Western Maine Shelf

More Historic Weather Station data

Upgrade to MSW Pro to gain access to the past 30 days of data for over 8000 Wavebouys and Weather Stations around the globe.

Join Pro

Comparision Forecast

View Surf forecast
   
Tue 02/21 3:04am 2.5ft 5s 16 20 mph 1027.7mb 40f 36f
2:04am 2.5ft 5s 13 16 mph 1027.6mb 40f 35f
1:04am 2.5ft 5s 13 16 mph 1028.3mb 40f 35f
12:04am 2ft 5s 16 20 mph 1027.7mb 40f 36f
Mon 02/20 11:04pm 2.5ft 4s 16 18 mph 1027mb 40f 36f
10:04pm 2.5ft 4s 18 25 mph 1026.6mb 40f 36f
9:04pm 2.5ft 3s 20 25 mph 1026mb 40f 37f
8:04pm 1.6ft 2s 20 25 mph 1025.7mb 40f 38f
7:04pm 1.6ft 3s 13 18 mph 1025mb 40f 39f
6:04pm 2ft 4s 13 18 mph 1024.1mb 40f 40f
5:04pm 2.5ft 4s 20 22 mph 1022.9mb 40f 40f
4:04pm  -   -  16 20 mph 1022.2mb 40f 40f
3:04pm 3ft 8s 16 18 mph 1021.6mb 40f 40f
2:04pm 2.5ft 8s 16 18 mph 1020.6mb 40f 39f
1:04pm 3ft 8s 11 16 mph 1020.6mb 40f 38f
12:04pm 3ft 4s 13 16 mph 1020.8mb 40f 37f
11:04am 3.5ft 4s 13 18 mph 1020.9mb 40f 36f
10:04am 3.5ft 5s 16 20 mph 1020.7mb 40f 36f
9:04am 3.5ft 5s 16 18 mph 1020.3mb 40f 36f
8:04am 3.5ft 5s 18 20 mph 1019.1mb 40f 36f
7:04am 2.5ft 4s 18 22 mph 1018mb 40f 37f
6:04am 2.5ft 4s 16 20 mph 1016.6mb 40f 38f
5:04am 2ft 3s 16 18 mph 1015.3mb 40f 39f
4:04am 1.6ft 3s 20 22 mph 1014.3mb 40f 40f
3:04am 2ft 8s 9
mph
1013.5mb 39f 40f
2:04am 1.6ft 11s 9
mph
1013mb 39f 40f
1:04am 1.6ft 8s 13 16 mph 1012.3mb 39f 42f
12:04am 1ft 2s 11 13 mph 1011.4mb 39f 43f
Sun 02/19 11:04pm 1.3ft 2s 13
mph
1011.1mb 39f 44f
10:04pm 0.7ft  -  11 13 mph 1010.9mb 39f 44f
9:04pm 1ft 2s 7 9 mph 1010.3mb 39f 44f
8:04pm 1.3ft 6s 13 16 mph 1009.4mb 39f 46f
7:04pm 1ft 3s 9 11 mph 1008.7mb 39f 44f
6:04pm 1.3ft 3s 16 20 mph 1007.8mb 39f 47f
5:04pm 2.5ft 4s 18 20 mph 1006.4mb 40f 48f
4:04pm 2.5ft 3s 20 22 mph 1005.3mb 40f 50f
3:04pm 2ft 6s 9 11 mph 1004.2mb 40f 49f
2:04pm 2.5ft 8s 13 16 mph 1003.2mb 40f 45f
1:04pm 2.5ft 11s 16
mph
1002.9mb 39f 44f
12:04pm 2ft 6s 11
mph
1003.5mb 39f 43f
11:04am 2ft 5s 11 13 mph 1003.8mb 39f 44f
10:04am 2ft 6s 11 13 mph 1004mb 39f 43f
9:04am 2ft 5s 11 13 mph 1003.8mb 39f 44f
8:04am 2.5ft 5s 11
mph
1003.4mb 39f 42f
7:04am 2.5ft 6s 13 16 mph 1002.6mb 39f 43f
6:04am 2.5ft 6s 18 20 mph 1001.7mb 39f 44f
5:04am 2.5ft 6s 13 16 mph 1001.2mb 39f 43f
4:04am 3.5ft 5s 16 18 mph 1000.3mb 39f 45f
3:04am 3.5ft 6s 13 16 mph 999.6mb 39f 44f
2:04am 3.5ft 5s 7
mph
999.2mb 39f 42f
1:04am 3.5ft 5s 11 13 mph 998.7mb 39f 43f
12:04am 3.5ft 6s 16 18 mph 998.1mb 40f 44f
Sat 02/18 11:04pm 3.5ft 5s 18 22 mph 997.7mb 40f 44f
10:04pm 4ft 6s 18 20 mph 997.8mb 40f 44f
9:04pm 3.5ft 5s 22 25 mph 997.4mb 40f 43f
8:04pm 3.5ft 5s 18 20 mph 997.8mb 40f 43f
7:04pm 3.5ft 5s 22 25 mph 997.6mb 40f 44f
6:04pm 3ft 5s 16 18 mph 998.7mb 40f 43f
5:04pm 2.5ft 4s 13 18 mph 998.8mb 40f 43f
4:04pm 2.5ft 5s 11 13 mph 999.6mb 40f 43f
3:04pm 3ft 5s 11 13 mph 1000.5mb 40f 42f
2:04pm 3ft 4s 13 16 mph 1002mb 40f 41f
1:04pm 2.5ft 4s 18 20 mph 1002.4mb 40f 40f
12:04pm 2ft 4s 18 20 mph 1004.2mb 40f 39f
11:04am 1.3ft 3s 13 18 mph 1005.7mb 40f 36f
10:04am 2.5ft 11s 13 16 mph 1006.8mb 40f 36f
9:04am  -   -  18 20 mph 1008.2mb 40f 34f
8:04am 1.3ft 3s 16 18 mph 1008.2mb 40f 33f
7:04am 1.6ft 11s 13 16 mph 1007.8mb 40f 33f
6:04am  -   -  9 11 mph 1007.8mb 40f 33f
5:04am 2ft 11s 13 16 mph 1008.2mb 40f 33f
4:04am 1.3ft 3s 13 16 mph 1008.5mb 40f 32f
3:04am 1.6ft 3s 16 20 mph 1008.3mb 40f 32f
2:04am 1.3ft 3s 16 18 mph 1008.1mb 40f 32f
1:04am 1ft 3s 16 20 mph 1007.8mb 40f 33f
12:04am 1.6ft 3s 18 20 mph 1007.6mb 40f 33f
Fri 02/17 11:04pm 1.3ft 3s 16 18 mph 1007mb 40f 33f
10:04pm 1.6ft 3s 11 13 mph 1007mb 40f 33f
9:04pm 2ft 3s 20 22 mph 1006.7mb 40f 34f
8:04pm 2.5ft 3s 22 27 mph 1005.9mb 40f 35f
7:04pm 2.5ft 3s 22 25 mph 1005.3mb 40f 35f
6:04pm 2.5ft 3s 25 31 mph 1004.3mb 40f 36f
5:04pm 3ft 11s 22 25 mph 1003.6mb 40f 37f
4:04pm 2.5ft 3s 20 25 mph 1002.5mb 40f 38f
3:04pm 1.6ft 3s 18 22 mph 1002.1mb 40f 38f
2:04pm 2ft 3s 20 25 mph 1002mb 40f 36f
1:04pm 2.5ft 3s 18 22 mph 1002.1mb 40f 34f
12:04pm 2ft 3s 16 20 mph 1002.7mb 40f 32f
11:04am 2.5ft 3s 18 22 mph 1003.1mb 40f 31f
10:04am 2.5ft 3s 22 27 mph 1003.1mb 40f 29f